Time;durP1;ratioP1;P1;durP2;ratioP2;P2;SDS_P1;SDS_P2;PMS_P1;PMS_P2;Temp;Humidity;BMP_temperature;BMP_pressure;BME280_temperature;BME280_humidity;BME280_pressure;Samples;Min_cycle;Max_cycle;Signal;HPM_P1;HPM_P2
2022/05/14 00:00:51;;;;;;;2.53;1.73;;;;;;;;;;4882606;29;20600;-81
2022/05/14 00:03:17;;;;;;;2.67;2.40;;;;;;;;;;4900657;29;20076;-82
2022/05/14 00:05:43;;;;;;;3.08;1.75;;;;;;;;;;4883110;29;20426;-82
2022/05/14 00:08:09;;;;;;;3.85;2.35;;;;;;;;;;4880367;29;20057;-81
2022/05/14 00:13:03;;;;;;;1.88;1.77;;;;;;;;;;4895696;29;20052;-82
2022/05/14 00:13:21;;;;;;;2.38;2.08;;;;;;;;;;4895648;29;20051;-81
2022/05/14 00:15:47;;;;;;;2.58;2.08;;;;;;;;;;4897563;29;20040;-81
2022/05/14 00:18:13;;;;;;;3.25;2.30;;;;;;;;;;4906601;29;20052;-85
2022/05/14 00:20:39;;;;;;;2.53;2.33;;;;;;;;;;4918622;29;20027;-86
2022/05/14 00:23:04;;;;;;;5.75;2.42;;;;;;;;;;4917693;29;20045;-84
2022/05/14 00:25:30;;;;;;;9.85;4.40;;;;;;;;;;4911443;29;20045;-83
2022/05/14 00:27:56;;;;;;;6.90;2.65;;;;;;;;;;4888210;29;20057;-82
2022/05/14 00:30:23;;;;;;;6.97;2.30;;;;;;;;;;4908114;29;20116;-83
2022/05/14 00:32:49;;;;;;;3.97;2.38;;;;;;;;;;4897636;29;20044;-83
2022/05/14 00:35:15;;;;;;;4.72;2.38;;;;;;;;;;4909776;29;20057;-84
2022/05/14 00:37:41;;;;;;;2.72;2.10;;;;;;;;;;4908072;29;20051;-82
2022/05/14 00:40:08;;;;;;;10.20;2.88;;;;;;;;;;4909182;29;20055;-84
2022/05/14 00:42:34;;;;;;;3.40;2.22;;;;;;;;;;4898806;29;20080;-82
2022/05/14 00:45:00;;;;;;;5.28;2.10;;;;;;;;;;4912934;29;20071;-84
2022/05/14 00:47:27;;;;;;;3.72;2.20;;;;;;;;;;4879931;29;20084;-82
2022/05/14 00:49:53;;;;;;;6.22;2.40;;;;;;;;;;4897145;29;20075;-81
2022/05/14 00:52:19;;;;;;;5.05;3.28;;;;;;;;;;4916281;29;20101;-83
2022/05/14 00:54:49;;;;;;;7.85;4.00;;;;;;;;;;4903426;29;20056;-82
2022/05/14 00:57:17;;;;;;;3.67;2.63;;;;;;;;;;4872707;29;20055;-79
2022/05/14 00:59:43;;;;;;;2.85;2.40;;;;;;;;;;4887757;29;20108;-82
2022/05/14 01:02:08;;;;;;;3.75;2.13;;;;;;;;;;4871977;29;20052;-82
2022/05/14 01:04:38;;;;;;;9.60;2.40;;;;;;;;;;4890661;29;20048;-82
2022/05/14 01:07:06;;;;;;;6.97;2.30;;;;;;;;;;4907178;29;20100;-82
2022/05/14 01:09:34;;;;;;;4.63;2.60;;;;;;;;;;4893274;29;20063;-83
2022/05/14 01:12:00;;;;;;;3.53;2.60;;;;;;;;;;4883872;29;20056;-82
2022/05/14 01:14:27;;;;;;;3.20;2.40;;;;;;;;;;4893045;29;20049;-82
2022/05/14 01:16:56;;;;;;;9.85;2.53;;;;;;;;;;4889642;29;20048;-81
2022/05/14 01:19:24;;;;;;;4.38;2.67;;;;;;;;;;4895553;29;20032;-84
2022/05/14 01:21:54;;;;;;;7.57;2.78;;;;;;;;;;4896667;29;20183;-84
2022/05/14 01:27:15;;;;;;;4.97;2.72;;;;;;;;;;4897915;29;20061;-83
2022/05/14 01:29:41;;;;;;;5.28;2.85;;;;;;;;;;4892852;29;20060;-81
2022/05/14 01:32:09;;;;;;;10.32;2.67;;;;;;;;;;4879475;29;20488;-82
2022/05/14 01:34:35;;;;;;;5.30;3.40;;;;;;;;;;4886768;29;20045;-81
2022/05/14 01:37:03;;;;;;;5.60;2.33;;;;;;;;;;4874982;29;20033;-82
2022/05/14 01:39:29;;;;;;;4.50;2.88;;;;;;;;;;4891236;29;20044;-81
2022/05/14 01:41:55;;;;;;;4.85;3.33;;;;;;;;;;4903382;29;20055;-82
2022/05/14 01:44:21;;;;;;;4.00;2.60;;;;;;;;;;4885917;29;20555;-80
2022/05/14 01:46:47;;;;;;;5.85;2.25;;;;;;;;;;4869004;29;20092;-81
2022/05/14 01:49:13;;;;;;;2.88;2.55;;;;;;;;;;4884394;29;20087;-86
2022/05/14 01:51:39;;;;;;;4.53;2.75;;;;;;;;;;4882583;29;20049;-87
2022/05/14 01:54:08;;;;;;;4.20;2.33;;;;;;;;;;4883721;29;20049;-84
2022/05/14 01:56:34;;;;;;;3.95;2.40;;;;;;;;;;4882393;29;20100;-84
2022/05/14 01:59:00;;;;;;;3.67;2.63;;;;;;;;;;4873751;29;20049;-83
2022/05/14 02:01:29;;;;;;;4.60;2.30;;;;;;;;;;4868582;29;20573;-85
2022/05/14 02:03:59;;;;;;;4.05;2.60;;;;;;;;;;4872668;29;20085;-83
2022/05/14 02:06:26;;;;;;;5.57;2.47;;;;;;;;;;4888432;29;20126;-83
2022/05/14 02:08:52;;;;;;;8.93;2.72;;;;;;;;;;4890084;29;20056;-84
2022/05/14 02:11:21;;;;;;;4.63;2.67;;;;;;;;;;4906000;29;20047;-85
2022/05/14 02:13:50;;;;;;;4.10;2.58;;;;;;;;;;4907341;29;20078;-84
2022/05/14 02:16:17;;;;;;;5.88;2.50;;;;;;;;;;4905399;29;20543;-85
2022/05/14 02:18:43;;;;;;;8.00;2.30;;;;;;;;;;4905890;29;20053;-84
2022/05/14 02:21:09;;;;;;;2.95;2.20;;;;;;;;;;4888636;29;20048;-84
2022/05/14 02:23:36;;;;;;;5.32;2.30;;;;;;;;;;4910505;29;20064;-83
2022/05/14 02:26:03;;;;;;;3.55;2.10;;;;;;;;;;4872490;29;20076;-83
2022/05/14 02:28:29;;;;;;;2.47;2.03;;;;;;;;;;4867178;29;20053;-81
2022/05/14 02:30:55;;;;;;;3.13;2.10;;;;;;;;;;4898868;29;20572;-82
2022/05/14 02:33:21;;;;;;;2.67;2.47;;;;;;;;;;4883257;29;20048;-84
2022/05/14 02:35:47;;;;;;;4.53;2.58;;;;;;;;;;4882670;29;20716;-84
2022/05/14 02:38:15;;;;;;;3.30;2.47;;;;;;;;;;4885024;29;20036;-84
2022/05/14 02:40:42;;;;;;;2.70;2.13;;;;;;;;;;4869325;29;20044;-84
2022/05/14 02:43:08;;;;;;;2.30;2.20;;;;;;;;;;4899103;29;20044;-82
2022/05/14 02:45:34;;;;;;;6.63;2.10;;;;;;;;;;4882085;29;20120;-84
2022/05/14 02:48:00;;;;;;;3.40;2.00;;;;;;;;;;4898964;29;20041;-83
2022/05/14 02:50:26;;;;;;;2.30;1.80;;;;;;;;;;4902840;29;20105;-85
2022/05/14 02:52:51;;;;;;;3.45;1.58;;;;;;;;;;4905462;29;20052;-85
2022/05/14 02:55:17;;;;;;;2.92;1.77;;;;;;;;;;4907625;29;20055;-85
2022/05/14 02:57:43;;;;;;;3.47;1.65;;;;;;;;;;4920171;29;20077;-86
2022/05/14 03:00:11;;;;;;;5.95;1.98;;;;;;;;;;4897968;29;20036;-83
2022/05/14 03:02:37;;;;;;;3.35;2.47;;;;;;;;;;4904188;29;20033;-85
2022/05/14 03:05:03;;;;;;;1.40;1.30;;;;;;;;;;4897459;29;20548;-84
2022/05/14 03:07:29;;;;;;;3.63;2.08;;;;;;;;;;4893816;29;20574;-83
2022/05/14 03:09:56;;;;;;;3.55;2.42;;;;;;;;;;4892120;29;20599;-85
2022/05/14 03:12:24;;;;;;;1.90;1.70;;;;;;;;;;4894608;29;20064;-85
2022/05/14 03:14:50;;;;;;;3.13;2.10;;;;;;;;;;4896178;29;20056;-83
2022/05/14 03:17:16;;;;;;;5.80;1.92;;;;;;;;;;4896576;29;20075;-84
2022/05/14 03:19:42;;;;;;;3.92;1.85;;;;;;;;;;4916398;29;20037;-85
2022/05/14 03:22:08;;;;;;;2.20;2.00;;;;;;;;;;4915458;29;20044;-80
2022/05/14 03:24:36;;;;;;;4.80;2.10;;;;;;;;;;4899010;29;20048;-81
2022/05/14 03:27:02;;;;;;;2.35;1.67;;;;;;;;;;4915288;29;20049;-84
2022/05/14 03:29:29;;;;;;;1.75;1.63;;;;;;;;;;4914599;29;20071;-83
2022/05/14 03:31:57;;;;;;;3.15;1.95;;;;;;;;;;4902783;29;20055;-87
2022/05/14 03:34:24;;;;;;;4.20;2.38;;;;;;;;;;4900696;29;20036;-85
2022/05/14 03:36:50;;;;;;;2.25;2.00;;;;;;;;;;4900024;29;20044;-84
2022/05/14 03:39:16;;;;;;;3.03;2.10;;;;;;;;;;4900826;29;20048;-86
2022/05/14 03:41:42;;;;;;;3.28;2.00;;;;;;;;;;4899785;29;20036;-86
2022/05/14 03:44:08;;;;;;;2.45;1.80;;;;;;;;;;4885849;29;20052;-83
2022/05/14 03:46:34;;;;;;;4.05;2.25;;;;;;;;;;4901596;29;20012;-84
2022/05/14 03:49:00;;;;;;;2.30;2.10;;;;;;;;;;4918544;29;20311;-86
2022/05/14 03:51:26;;;;;;;4.25;1.80;;;;;;;;;;4887583;29;20032;-88
2022/05/14 03:53:52;;;;;;;3.53;2.10;;;;;;;;;;5155811;23;21023;-86
2022/05/14 03:56:19;;;;;;;3.38;2.22;;;;;;;;;;4935527;29;20059;-84
2022/05/14 03:58:44;;;;;;;2.83;1.92;;;;;;;;;;4932319;29;20044;-84
2022/05/14 04:01:10;;;;;;;2.33;2.13;;;;;;;;;;4930360;29;20131;-82
2022/05/14 04:03:37;;;;;;;3.17;1.88;;;;;;;;;;4925807;29;20083;-85
2022/05/14 04:06:03;;;;;;;1.70;1.60;;;;;;;;;;4926557;29;20036;-84
2022/05/14 04:08:28;;;;;;;3.30;1.92;;;;;;;;;;4902631;29;20056;-80
2022/05/14 04:10:54;;;;;;;4.53;1.77;;;;;;;;;;4918469;29;20067;-82
2022/05/14 04:13:21;;;;;;;2.15;1.65;;;;;;;;;;4919836;29;20051;-82
2022/05/14 04:15:48;;;;;;;2.20;2.10;;;;;;;;;;4924060;29;20048;-84
2022/05/14 04:18:14;;;;;;;4.00;2.13;;;;;;;;;;4931181;29;20065;-84
2022/05/14 04:20:40;;;;;;;2.65;2.30;;;;;;;;;;4930961;29;20052;-82
2022/05/14 04:23:07;;;;;;;1.48;1.40;;;;;;;;;;4953291;29;20024;-85
2022/05/14 04:25:33;;;;;;;2.20;2.00;;;;;;;;;;4957394;29;20078;-86
2022/05/14 04:28:00;;;;;;;3.13;1.70;;;;;;;;;;4938907;29;20020;-89
2022/05/14 04:30:26;;;;;;;2.03;1.48;;;;;;;;;;4953755;29;20054;-87
2022/05/14 04:32:52;;;;;;;1.63;1.52;;;;;;;;;;4935484;29;20054;-77
2022/05/14 04:35:18;;;;;;;2.28;1.80;;;;;;;;;;4930775;29;20052;-78
2022/05/14 04:37:46;;;;;;;2.10;1.70;;;;;;;;;;4931692;29;20064;-81
2022/05/14 04:40:12;;;;;;;2.42;1.70;;;;;;;;;;4925194;29;20655;-82
2022/05/14 04:42:38;;;;;;;1.80;1.70;;;;;;;;;;4935389;29;20039;-81
2022/05/14 04:45:05;;;;;;;1.67;1.58;;;;;;;;;;4923167;29;20485;-79
2022/05/14 04:47:31;;;;;;;5.55;2.17;;;;;;;;;;4930526;29;20040;-79
2022/05/14 04:49:57;;;;;;;1.60;1.50;;;;;;;;;;4916250;29;20154;-79
2022/05/14 04:52:23;;;;;;;1.60;1.50;;;;;;;;;;4916669;29;20044;-80
2022/05/14 04:54:49;;;;;;;1.55;1.45;;;;;;;;;;4895182;29;20056;-81
2022/05/14 04:57:15;;;;;;;2.67;1.70;;;;;;;;;;4911166;29;20143;-76
2022/05/14 04:59:41;;;;;;;3.70;1.50;;;;;;;;;;4911560;29;20052;-81
2022/05/14 05:04:54;;;;;;;1.77;1.67;;;;;;;;;;4911575;29;20048;-81
2022/05/14 05:07:21;;;;;;;3.28;1.45;;;;;;;;;;4914486;29;20079;-80
2022/05/14 05:09:47;;;;;;;1.65;1.55;;;;;;;;;;4929941;29;20738;-80
2022/05/14 05:12:13;;;;;;;1.98;1.52;;;;;;;;;;4931216;29;20043;-79
2022/05/14 05:14:41;;;;;;;3.70;1.67;;;;;;;;;;4931321;29;20475;-80
2022/05/14 05:17:07;;;;;;;1.58;1.48;;;;;;;;;;4933195;29;20046;-82
2022/05/14 05:19:33;;;;;;;1.40;1.30;;;;;;;;;;4935899;29;20523;-77
2022/05/14 05:21:59;;;;;;;2.22;1.50;;;;;;;;;;4931444;29;20035;-78
2022/05/14 05:24:25;;;;;;;2.80;1.73;;;;;;;;;;4918697;29;20039;-82
2022/05/14 05:26:51;;;;;;;2.92;1.50;;;;;;;;;;4935062;29;20131;-82
2022/05/14 05:29:18;;;;;;;2.97;1.67;;;;;;;;;;4934670;29;20620;-82
2022/05/14 05:31:44;;;;;;;2.28;1.50;;;;;;;;;;4934986;29;20050;-82
2022/05/14 05:34:10;;;;;;;1.58;1.20;;;;;;;;;;4932856;29;20106;-80
2022/05/14 05:36:36;;;;;;;1.83;1.73;;;;;;;;;;4935323;29;20106;-82
2022/05/14 05:39:02;;;;;;;2.00;1.40;;;;;;;;;;4937173;29;20138;-84
2022/05/14 05:41:28;;;;;;;1.65;1.40;;;;;;;;;;4935477;29;20056;-77
2022/05/14 05:43:54;;;;;;;3.40;1.55;;;;;;;;;;4936034;29;20561;-80
2022/05/14 05:46:20;;;;;;;5.05;1.38;;;;;;;;;;4934169;29;20414;-82
2022/05/14 05:48:46;;;;;;;2.03;1.30;;;;;;;;;;4934420;29;20051;-77
2022/05/14 05:51:12;;;;;;;1.60;1.45;;;;;;;;;;4932921;29;20047;-78
2022/05/14 05:59:08;;;;;;;3.13;1.40;;;;;;;;;;4947692;29;20106;-76
2022/05/14 06:01:34;;;;;;;3.83;1.30;;;;;;;;;;4930261;29;20212;-77
2022/05/14 06:04:00;;;;;;;1.48;1.38;;;;;;;;;;4932054;29;20043;-79
2022/05/14 06:06:26;;;;;;;1.65;1.23;;;;;;;;;;4952655;29;20054;-76
2022/05/14 06:08:53;;;;;;;1.52;1.30;;;;;;;;;;4941809;29;20070;-76
2022/05/14 06:11:19;;;;;;;1.75;1.65;;;;;;;;;;4934388;29;20055;-79
2022/05/14 06:13:45;;;;;;;1.13;1.13;;;;;;;;;;4916751;29;20055;-80
2022/05/14 06:16:12;;;;;;;2.85;1.13;;;;;;;;;;4933920;29;20115;-81
2022/05/14 06:18:37;;;;;;;1.63;1.23;;;;;;;;;;4933666;29;20107;-80
2022/05/14 06:21:04;;;;;;;2.83;1.30;;;;;;;;;;4933150;29;20503;-80
2022/05/14 06:23:30;;;;;;;4.35;1.30;;;;;;;;;;4933615;29;20090;-80
2022/05/14 06:25:55;;;;;;;1.10;1.00;;;;;;;;;;4933387;29;20071;-80
2022/05/14 06:28:21;;;;;;;4.90;1.40;;;;;;;;;;4917282;29;20060;-79
2022/05/14 06:30:47;;;;;;;0.93;0.90;;;;;;;;;;4940791;29;20134;-78
2022/05/14 06:33:14;;;;;;;1.30;1.20;;;;;;;;;;4942442;29;20127;-77
2022/05/14 06:35:40;;;;;;;5.07;1.20;;;;;;;;;;4935153;29;20142;-78
2022/05/14 06:38:06;;;;;;;0.80;0.80;;;;;;;;;;4952406;28;20485;-78
2022/05/14 06:40:32;;;;;;;2.83;1.50;;;;;;;;;;4952308;29;20078;-80
2022/05/14 06:42:59;;;;;;;3.50;1.48;;;;;;;;;;4953170;29;20070;-78
2022/05/14 06:45:24;;;;;;;2.28;0.85;;;;;;;;;;4935997;29;20047;-80
2022/05/14 06:47:51;;;;;;;3.72;1.20;;;;;;;;;;4925537;29;20418;-81
2022/05/14 06:50:17;;;;;;;1.38;1.17;;;;;;;;;;4925252;29;20052;-82
2022/05/14 06:52:44;;;;;;;1.48;1.20;;;;;;;;;;4943139;29;20047;-81
2022/05/14 06:55:10;;;;;;;2.25;1.23;;;;;;;;;;4941348;29;20492;-79
2022/05/14 06:57:37;;;;;;;2.17;1.30;;;;;;;;;;4920716;29;20581;-81
2022/05/14 07:00:05;;;;;;;1.63;1.35;;;;;;;;;;4945713;29;20097;-81
2022/05/14 07:02:31;;;;;;;1.40;1.10;;;;;;;;;;4942835;29;20387;-79
2022/05/14 07:07:41;;;;;;;0.80;0.80;;;;;;;;;;4924998;29;20127;-82
2022/05/14 07:10:07;;;;;;;1.20;1.20;;;;;;;;;;4937050;29;20062;-81
2022/05/14 07:12:33;;;;;;;1.40;1.27;;;;;;;;;;4941486;29;20043;-80
2022/05/14 07:14:59;;;;;;;1.20;1.05;;;;;;;;;;4936682;29;20054;-79
2022/05/14 07:17:25;;;;;;;1.08;1.05;;;;;;;;;;4940259;29;20074;-78
2022/05/14 07:19:51;;;;;;;5.95;1.20;;;;;;;;;;4940082;29;20516;-78
2022/05/14 07:22:17;;;;;;;1.25;1.10;;;;;;;;;;4939194;29;20091;-81
2022/05/14 07:24:43;;;;;;;1.30;1.05;;;;;;;;;;4928642;29;20134;-80
2022/05/14 07:27:11;;;;;;;2.95;1.30;;;;;;;;;;4925755;29;20043;-79
2022/05/14 07:29:37;;;;;;;1.48;1.42;;;;;;;;;;4942836;29;20159;-76
2022/05/14 07:32:03;;;;;;;3.40;1.40;;;;;;;;;;4944927;29;20047;-76
2022/05/14 07:34:30;;;;;;;3.60;2.03;;;;;;;;;;4943484;29;20111;-75
2022/05/14 07:37:02;;;;;;;1.20;1.20;;;;;;;;;;4946244;29;20105;-77
2022/05/14 07:39:29;;;;;;;1.23;1.23;;;;;;;;;;4943406;29;21475;-74
2022/05/14 07:41:57;;;;;;;1.33;1.20;;;;;;;;;;4945873;29;20038;-75
2022/05/14 07:44:24;;;;;;;3.20;1.02;;;;;;;;;;4945377;29;20051;-75
2022/05/14 07:46:49;;;;;;;1.95;1.08;;;;;;;;;;4911387;29;20042;-74
2022/05/14 07:49:16;;;;;;;1.05;1.05;;;;;;;;;;4942555;28;20063;-75
2022/05/14 07:51:42;;;;;;;1.48;1.20;;;;;;;;;;4940187;29;20454;-76
2022/05/14 07:54:09;;;;;;;1.17;1.00;;;;;;;;;;4926919;29;20043;-75
2022/05/14 07:56:35;;;;;;;2.15;1.30;;;;;;;;;;4905843;29;20039;-77
2022/05/14 07:59:01;;;;;;;1.23;0.93;;;;;;;;;;4920935;29;20237;-76
2022/05/14 08:01:27;;;;;;;3.33;1.30;;;;;;;;;;4924280;29;20162;-76
2022/05/14 08:03:53;;;;;;;2.15;1.48;;;;;;;;;;4927319;29;20059;-75
2022/05/14 08:06:19;;;;;;;1.63;1.52;;;;;;;;;;4910717;29;20028;-75
2022/05/14 08:08:45;;;;;;;1.20;1.20;;;;;;;;;;4924287;29;20528;-75
2022/05/14 08:11:11;;;;;;;4.05;1.17;;;;;;;;;;4927465;29;20413;-75
2022/05/14 08:13:37;;;;;;;5.35;1.13;;;;;;;;;;4926220;29;20044;-76
2022/05/14 08:16:02;;;;;;;3.00;1.52;;;;;;;;;;4927569;29;20184;-76
2022/05/14 08:18:29;;;;;;;2.25;1.30;;;;;;;;;;4932114;29;20089;-75
2022/05/14 08:20:54;;;;;;;3.22;1.42;;;;;;;;;;4933751;29;20401;-76
2022/05/14 08:26:05;;;;;;;3.75;1.23;;;;;;;;;;4918874;29;20410;-76
2022/05/14 08:28:31;;;;;;;6.95;1.70;;;;;;;;;;4922353;29;20052;-75
2022/05/14 08:30:57;;;;;;;3.55;1.05;;;;;;;;;;4920937;29;20092;-75
2022/05/14 08:33:22;;;;;;;4.47;1.30;;;;;;;;;;4926957;29;20043;-74
2022/05/14 08:35:48;;;;;;;3.17;1.50;;;;;;;;;;4926476;29;20044;-75
2022/05/14 08:38:15;;;;;;;2.03;1.30;;;;;;;;;;4928318;29;20518;-75
2022/05/14 08:40:43;;;;;;;1.38;1.27;;;;;;;;;;4920088;29;20439;-76
2022/05/14 08:43:10;;;;;;;1.17;1.17;;;;;;;;;;4922888;29;20036;-75
2022/05/14 08:45:36;;;;;;;2.83;1.45;;;;;;;;;;4919774;29;20040;-75
2022/05/14 08:48:07;;;;;;;1.60;1.50;;;;;;;;;;4921089;29;20577;-76
2022/05/14 08:50:36;;;;;;;1.95;1.15;;;;;;;;;;4919363;29;20032;-75
2022/05/14 08:53:03;;;;;;;1.98;1.13;;;;;;;;;;4922573;29;20115;-75
2022/05/14 08:55:49;;;;;;;3.13;1.50;;;;;;;;;;4933491;29;20130;-76
2022/05/14 08:58:34;;;;;;;4.82;1.33;;;;;;;;;;4907321;29;20759;-75
2022/05/14 09:01:01;;;;;;;1.15;1.02;;;;;;;;;;4941664;28;20039;-75
2022/05/14 09:03:29;;;;;;;3.65;1.25;;;;;;;;;;4942237;29;20036;-75
2022/05/14 09:05:56;;;;;;;1.73;1.20;;;;;;;;;;4942237;29;20398;-74
2022/05/14 09:08:23;;;;;;;2.95;1.30;;;;;;;;;;4944092;29;20067;-75
2022/05/14 09:11:00;;;;;;;1.70;1.20;;;;;;;;;;4944499;29;20052;-75
2022/05/14 09:13:27;;;;;;;0.98;0.98;;;;;;;;;;4946113;29;20035;-75
2022/05/14 09:15:59;;;;;;;3.10;1.67;;;;;;;;;;4942723;29;20443;-74
2022/05/14 09:18:31;;;;;;;2.42;1.52;;;;;;;;;;4941759;29;20028;-74
2022/05/14 09:20:57;;;;;;;1.42;1.33;;;;;;;;;;4924247;29;20043;-74
2022/05/14 09:23:24;;;;;;;1.58;1.30;;;;;;;;;;4946672;29;20054;-76
2022/05/14 09:25:51;;;;;;;6.60;1.30;;;;;;;;;;4942017;29;20039;-74
2022/05/14 09:28:35;;;;;;;2.03;1.42;;;;;;;;;;4942914;29;20039;-74
2022/05/14 09:31:01;;;;;;;3.50;1.27;;;;;;;;;;4942894;29;20078;-73
2022/05/14 09:33:28;;;;;;;2.67;1.15;;;;;;;;;;4946851;29;20040;-74
2022/05/14 09:35:59;;;;;;;11.18;1.58;;;;;;;;;;4943825;29;20043;-74
2022/05/14 09:38:28;;;;;;;3.85;1.55;;;;;;;;;;4931050;29;20062;-74
2022/05/14 09:40:55;;;;;;;1.25;1.20;;;;;;;;;;4942666;29;20105;-74
2022/05/14 09:43:26;;;;;;;1.10;1.10;;;;;;;;;;4950271;29;20498;-75
2022/05/14 09:46:03;;;;;;;1.42;1.30;;;;;;;;;;4927706;29;20695;-74
2022/05/14 09:48:47;;;;;;;3.03;1.20;;;;;;;;;;4945295;29;20517;-75
2022/05/14 09:51:14;;;;;;;3.08;1.17;;;;;;;;;;4947496;29;20023;-75
2022/05/14 09:53:41;;;;;;;3.30;1.40;;;;;;;;;;4943062;29;20047;-74
2022/05/14 09:56:10;;;;;;;1.27;1.13;;;;;;;;;;4913519;29;20129;-75
2022/05/14 09:58:45;;;;;;;2.10;1.15;;;;;;;;;;4944963;29;20050;-74
2022/05/14 10:01:30;;;;;;;1.42;1.23;;;;;;;;;;4941357;29;20184;-73
2022/05/14 10:04:06;;;;;;;3.80;1.23;;;;;;;;;;4942874;29;20482;-75
2022/05/14 10:06:32;;;;;;;1.77;1.30;;;;;;;;;;4930579;29;20413;-75
2022/05/14 10:09:06;;;;;;;2.97;1.80;;;;;;;;;;4943037;29;20059;-74
2022/05/14 10:11:34;;;;;;;3.40;1.90;;;;;;;;;;4929333;29;20486;-75
2022/05/14 10:14:01;;;;;;;1.70;1.60;;;;;;;;;;4942414;29;20051;-76
2022/05/14 10:16:39;;;;;;;3.28;1.98;;;;;;;;;;4939163;29;20118;-75
2022/05/14 10:19:09;;;;;;;2.13;1.92;;;;;;;;;;4925330;29;20522;-75
2022/05/14 10:21:39;;;;;;;2.78;1.70;;;;;;;;;;4928145;29;20071;-76
2022/05/14 10:27:02;;;;;;;2.25;2.03;;;;;;;;;;4926443;29;20399;-75
2022/05/14 10:29:37;;;;;;;5.45;1.83;;;;;;;;;;4944960;29;20051;-75
2022/05/14 10:32:08;;;;;;;5.47;2.10;;;;;;;;;;4925673;29;20040;-74
2022/05/14 10:34:43;;;;;;;2.85;1.92;;;;;;;;;;4917297;29;20122;-74
2022/05/14 10:37:21;;;;;;;4.57;1.70;;;;;;;;;;4928866;29;20125;-74
2022/05/14 10:39:53;;;;;;;4.28;1.88;;;;;;;;;;4942552;29;20094;-72
2022/05/14 10:42:37;;;;;;;4.13;2.80;;;;;;;;;;4917858;29;20101;-75
2022/05/14 10:45:07;;;;;;;3.20;1.88;;;;;;;;;;4945600;29;20055;-74
2022/05/14 10:47:33;;;;;;;1.50;1.40;;;;;;;;;;4929406;29;20067;-74
2022/05/14 10:50:04;;;;;;;2.08;1.58;;;;;;;;;;4916274;29;20086;-74
2022/05/14 10:52:30;;;;;;;;;;;;;;;;;;4897512;29;20498;-73
2022/05/14 10:54:57;;;;;;;2.72;1.70;;;;;;;;;;4905902;29;20013;-74
2022/05/14 10:57:40;;;;;;;3.78;1.90;;;;;;;;;;4942610;29;20111;-74
2022/05/14 11:00:31;;;;;;;3.50;2.05;;;;;;;;;;4909717;29;20047;-74
2022/05/14 11:02:57;;;;;;;4.32;2.20;;;;;;;;;;4946925;29;20055;-74
2022/05/14 11:05:29;;;;;;;5.90;1.90;;;;;;;;;;4944343;29;20562;-74
2022/05/14 11:08:05;;;;;;;1.73;1.63;;;;;;;;;;4944129;29;20077;-75
2022/05/14 11:10:32;;;;;;;4.82;1.83;;;;;;;;;;4940463;29;20053;-74
2022/05/14 11:13:30;;;;;;;5.10;1.92;;;;;;;;;;4941566;29;20039;-74
2022/05/14 11:16:05;;;;;;;2.10;1.75;;;;;;;;;;4901594;29;20039;-74
2022/05/14 11:18:42;;;;;;;4.82;2.08;;;;;;;;;;4915244;29;20130;-74
2022/05/14 11:21:08;;;;;;;2.47;1.98;;;;;;;;;;4939905;29;20723;-75
2022/05/14 11:23:45;;;;;;;2.78;1.98;;;;;;;;;;4923822;29;20138;-75
2022/05/14 11:26:11;;;;;;;10.13;4.28;;;;;;;;;;4925557;29;20036;-74
2022/05/14 11:28:37;;;;;;;7.05;4.63;;;;;;;;;;4941876;29;20051;-75
2022/05/14 11:31:29;;;;;;;4.20;3.80;;;;;;;;;;4926996;29;20051;-74
2022/05/14 11:33:56;;;;;;;4.25;3.42;;;;;;;;;;4921385;29;20044;-74
2022/05/14 11:36:31;;;;;;;3.08;2.78;;;;;;;;;;4942880;29;20047;-75
2022/05/14 11:39:08;;;;;;;2.75;2.20;;;;;;;;;;4948703;29;20047;-74
2022/05/14 11:41:36;;;;;;;4.05;1.80;;;;;;;;;;4944603;29;20421;-75
2022/05/14 11:44:04;;;;;;;3.38;1.85;;;;;;;;;;4912154;29;20109;-74
2022/05/14 11:46:31;;;;;;;3.10;2.63;;;;;;;;;;4929482;29;20036;-73
2022/05/14 11:49:00;;;;;;;3.58;2.30;;;;;;;;;;4921745;29;20146;-74
2022/05/14 11:51:45;;;;;;;3.42;2.10;;;;;;;;;;4950489;29;20138;-74
2022/05/14 11:54:14;;;;;;;5.25;2.40;;;;;;;;;;4929840;29;20043;-74
2022/05/14 11:56:46;;;;;;;5.93;2.53;;;;;;;;;;4928430;29;20055;-75
2022/05/14 11:59:19;;;;;;;7.20;2.17;;;;;;;;;;4915187;29;20422;-73
2022/05/14 12:01:45;;;;;;;4.97;1.98;;;;;;;;;;4948287;29;20102;-73
2022/05/14 12:04:24;;;;;;;3.45;1.92;;;;;;;;;;4943455;29;20393;-73
2022/05/14 12:07:26;;;;;;;1.70;1.60;;;;;;;;;;4912187;29;20039;-72
2022/05/14 12:10:04;;;;;;;5.80;2.20;;;;;;;;;;4923646;29;20062;-72
2022/05/14 12:12:36;;;;;;;1.63;1.58;;;;;;;;;;4924369;29;20039;-71
2022/05/14 12:15:13;;;;;;;2.92;1.20;;;;;;;;;;4948900;29;20094;-73
2022/05/14 12:17:49;;;;;;;2.58;1.40;;;;;;;;;;4903200;29;20087;-70
2022/05/14 12:20:44;;;;;;;2.67;1.58;;;;;;;;;;4949543;29;20047;-72
2022/05/14 12:23:14;;;;;;;2.70;1.52;;;;;;;;;;4921715;29;20600;-70
2022/05/14 12:25:44;;;;;;;3.78;1.38;;;;;;;;;;4947761;29;20652;-70
2022/05/14 12:28:17;;;;;;;2.17;1.20;;;;;;;;;;4938710;29;20043;-68
2022/05/14 12:33:38;;;;;;;1.70;1.60;;;;;;;;;;4948261;29;20054;-71
2022/05/14 12:36:05;;;;;;;1.65;1.45;;;;;;;;;;4932520;29;20110;-70
2022/05/14 12:38:33;;;;;;;2.28;2.08;;;;;;;;;;4951712;29;20047;-71
2022/05/14 12:40:59;;;;;;;3.70;1.80;;;;;;;;;;4934975;29;20058;-71
2022/05/14 12:43:25;;;;;;;3.17;1.75;;;;;;;;;;4935588;29;20056;-71
2022/05/14 12:45:59;;;;;;;1.50;1.40;;;;;;;;;;4935061;29;20052;-71
2022/05/14 12:48:25;;;;;;;2.45;2.05;;;;;;;;;;4917738;29;20536;-71
2022/05/14 12:50:55;;;;;;;3.03;1.95;;;;;;;;;;4935173;29;20047;-70
2022/05/14 12:53:31;;;;;;;2.67;1.75;;;;;;;;;;4933767;29;20043;-71
2022/05/14 12:55:57;;;;;;;1.25;1.20;;;;;;;;;;4917679;29;20060;-71
2022/05/14 12:58:23;;;;;;;1.70;1.60;;;;;;;;;;4951607;29;20046;-71
2022/05/14 13:00:49;;;;;;;3.60;1.80;;;;;;;;;;4952756;29;20043;-71
2022/05/14 13:03:34;;;;;;;1.77;1.67;;;;;;;;;;4936005;29;20044;-70
2022/05/14 13:06:22;;;;;;;3.13;1.80;;;;;;;;;;4953308;29;20047;-71
2022/05/14 13:08:50;;;;;;;5.85;1.92;;;;;;;;;;4953589;29;20055;-71
2022/05/14 13:11:20;;;;;;;3.33;1.75;;;;;;;;;;4921021;29;20040;-72
2022/05/14 13:13:46;;;;;;;3.37;2.80;;;;;;;;;;4949762;29;20043;-68
2022/05/14 13:16:19;;;;;;;2.90;1.70;;;;;;;;;;4935940;29;20365;-68
2022/05/14 13:18:49;;;;;;;5.32;2.10;;;;;;;;;;4936505;29;20039;-69
2022/05/14 13:21:19;;;;;;;4.38;1.75;;;;;;;;;;4952744;29;20267;-69
2022/05/14 13:23:45;;;;;;;;;;;;;;;;;;4952746;29;20035;-69
2022/05/14 13:26:22;;;;;;;2.53;1.40;;;;;;;;;;4952545;29;19921;-70
2022/05/14 13:28:48;;;;;;;2.13;1.73;;;;;;;;;;4935379;29;20589;-70
2022/05/14 13:31:26;;;;;;;3.40;1.90;;;;;;;;;;4951929;29;20049;-69
2022/05/14 13:33:59;;;;;;;1.90;1.73;;;;;;;;;;4950584;29;20058;-70
2022/05/14 13:39:11;;;;;;;5.18;1.80;;;;;;;;;;4937572;29;20510;-68
2022/05/14 13:41:39;;;;;;;1.83;1.30;;;;;;;;;;4935244;29;20505;-69
2022/05/14 13:44:05;;;;;;;3.75;1.85;;;;;;;;;;4935023;29;20084;-68
2022/05/14 13:46:32;;;;;;;1.67;1.35;;;;;;;;;;4952652;28;20058;-69
2022/05/14 13:48:58;;;;;;;2.22;1.55;;;;;;;;;;4935866;29;20557;-69
2022/05/14 13:51:27;;;;;;;2.58;1.90;;;;;;;;;;4935081;29;20058;-68
2022/05/14 13:54:07;;;;;;;4.50;1.52;;;;;;;;;;4952887;29;20102;-70
2022/05/14 13:56:33;;;;;;;2.67;1.48;;;;;;;;;;4952338;29;20083;-70
2022/05/14 13:58:59;;;;;;;3.22;1.60;;;;;;;;;;4952399;29;20615;-70
2022/05/14 14:01:48;;;;;;;1.65;1.42;;;;;;;;;;4952627;29;20084;-70
2022/05/14 14:04:16;;;;;;;5.90;1.35;;;;;;;;;;4939706;29;20062;-70
2022/05/14 14:06:42;;;;;;;1.95;1.50;;;;;;;;;;4952492;29;20502;-70
2022/05/14 14:09:08;;;;;;;2.97;1.92;;;;;;;;;;4952134;29;20083;-72
2022/05/14 14:11:34;;;;;;;3.95;2.05;;;;;;;;;;4952026;29;20485;-71
2022/05/14 14:14:00;;;;;;;3.72;1.60;;;;;;;;;;4952829;29;20043;-71
2022/05/14 14:16:26;;;;;;;1.52;1.45;;;;;;;;;;4952074;29;20043;-70
2022/05/14 14:18:52;;;;;;;3.88;1.60;;;;;;;;;;4952749;29;20178;-71
2022/05/14 14:21:18;;;;;;;1.75;1.60;;;;;;;;;;4951979;29;20102;-70
2022/05/14 14:23:45;;;;;;;3.15;1.40;;;;;;;;;;4952463;29;20049;-71
2022/05/14 14:26:11;;;;;;;1.50;1.40;;;;;;;;;;4951454;29;20046;-70
2022/05/14 14:28:38;;;;;;;1.33;1.17;;;;;;;;;;4951904;29;20138;-70
2022/05/14 14:31:04;;;;;;;1.35;1.27;;;;;;;;;;4952114;29;20039;-70
2022/05/14 14:33:32;;;;;;;1.92;1.73;;;;;;;;;;4934986;29;20055;-71
2022/05/14 14:35:59;;;;;;;1.50;1.40;;;;;;;;;;4952202;29;20086;-71
2022/05/14 14:38:25;;;;;;;4.50;1.40;;;;;;;;;;4918802;29;20134;-70
2022/05/14 14:40:50;;;;;;;5.47;1.65;;;;;;;;;;4951436;29;20039;-71
2022/05/14 14:43:16;;;;;;;8.35;1.95;;;;;;;;;;4951686;29;20058;-70
2022/05/14 14:45:44;;;;;;;3.20;2.45;;;;;;;;;;4951632;29;20101;-70
2022/05/14 14:48:12;;;;;;;4.85;1.50;;;;;;;;;;4951802;29;20055;-71
2022/05/14 14:50:39;;;;;;;4.05;2.45;;;;;;;;;;4951686;29;20043;-71
2022/05/14 14:53:05;;;;;;;3.05;1.73;;;;;;;;;;4951435;29;20192;-71
2022/05/14 14:55:32;;;;;;;2.08;1.70;;;;;;;;;;4934133;29;20110;-71
2022/05/14 14:57:58;;;;;;;3.97;1.50;;;;;;;;;;4950994;28;20071;-71
2022/05/14 15:00:24;;;;;;;4.43;1.73;;;;;;;;;;4951370;29;20083;-71
2022/05/14 15:02:55;;;;;;;2.00;1.75;;;;;;;;;;4934446;29;20057;-71
2022/05/14 15:05:23;;;;;;;1.38;1.27;;;;;;;;;;4933948;29;20043;-71
2022/05/14 15:07:49;;;;;;;1.83;1.73;;;;;;;;;;4934392;29;20043;-71
2022/05/14 15:10:14;;;;;;;5.55;1.90;;;;;;;;;;4927205;29;20102;-71
2022/05/14 15:12:42;;;;;;;3.90;2.15;;;;;;;;;;4932180;29;20044;-71
2022/05/14 15:15:08;;;;;;;2.55;1.80;;;;;;;;;;4915014;29;20570;-71